Time;durP1;ratioP1;P1;durP2;ratioP2;P2;SDS_P1;SDS_P2;PMS_P1;PMS_P2;Temp;Humidity;BMP_temperature;BMP_pressure;BME280_temperature;BME280_humidity;BME280_pressure;Samples;Min_cycle;Max_cycle;Signal;HPM_P1;HPM_P2
2022/09/12 00:01:12;;;;;;;20.13;16.58;;;;;;;10.88;100.00;101714.44;2078672;28;35981;-72
2022/09/12 00:02:14;;;;;;;20.25;17.15;;;;;;;10.89;100.00;101707.28;2079890;28;20096;-72
2022/09/12 00:03:17;;;;;;;18.83;16.85;;;;;;;10.88;100.00;101695.69;2079239;28;35860;-72
2022/09/12 00:04:19;;;;;;;21.25;18.67;;;;;;;10.92;100.00;101701.91;2080096;28;20057;-72
2022/09/12 00:05:24;;;;;;;22.85;19.27;;;;;;;10.91;100.00;101699.25;2079351;28;34596;-72
2022/09/12 00:06:35;;;;;;;20.85;18.08;;;;;;;10.93;100.00;101700.09;2079358;28;35008;-72
2022/09/12 00:07:36;;;;;;;20.45;18.13;;;;;;;10.94;100.00;101699.22;2078986;28;20823;-72
2022/09/12 00:08:38;;;;;;;22.33;18.30;;;;;;;10.97;100.00;101700.06;2079127;28;22549;-72
2022/09/12 00:09:40;;;;;;;21.52;17.95;;;;;;;11.01;100.00;101690.19;2079131;28;32714;-72
2022/09/12 00:10:43;;;;;;;23.17;20.05;;;;;;;11.02;100.00;101695.53;2079363;28;31012;-72
2022/09/12 00:11:45;;;;;;;23.02;18.80;;;;;;;11.05;100.00;101698.19;2078564;28;37458;-72
2022/09/12 00:12:47;;;;;;;21.98;19.17;;;;;;;11.05;100.00;101694.59;2078841;28;39210;-72
2022/09/12 00:13:49;;;;;;;21.38;18.15;;;;;;;11.04;100.00;101693.72;2079429;28;20038;-72
2022/09/12 00:14:51;;;;;;;24.83;20.42;;;;;;;11.06;100.00;101693.69;2078819;28;30004;-72
2022/09/12 00:15:54;;;;;;;23.25;19.50;;;;;;;11.03;100.00;101702.66;2078569;28;36503;-72
2022/09/12 00:16:58;;;;;;;20.90;17.90;;;;;;;11.04;100.00;101693.72;2086536;28;29690;-72
2022/09/12 00:18:00;;;;;;;22.20;18.67;;;;;;;11.08;100.00;101695.44;2079821;28;39225;-72
2022/09/12 00:19:04;;;;;;;19.95;17.75;;;;;;;11.06;100.00;101691.91;2080242;28;30584;-72
2022/09/12 00:20:08;;;;;;;21.10;18.77;;;;;;;11.05;100.00;101689.25;2080301;28;38519;-72
2022/09/12 00:21:10;;;;;;;20.20;17.77;;;;;;;11.02;100.00;101690.19;2080750;28;34257;-72
2022/09/12 00:22:12;;;;;;;17.10;15.23;;;;;;;11.02;100.00;101687.50;2080368;28;37366;-72
2022/09/12 00:23:13;;;;;;;21.67;18.80;;;;;;;11.01;100.00;101687.50;2081461;28;20038;-72
2022/09/12 00:24:15;;;;;;;21.08;17.67;;;;;;;10.97;100.00;101686.66;2080591;28;34020;-72
2022/09/12 00:25:18;;;;;;;19.73;17.15;;;;;;;10.95;100.00;101693.84;2080684;28;36722;-72
2022/09/12 00:26:22;;;;;;;20.95;17.95;;;;;;;10.93;100.00;101694.75;2079813;28;33231;-72
2022/09/12 00:27:24;;;;;;;18.70;16.20;;;;;;;10.91;100.00;101692.13;2080267;28;20140;-72
2022/09/12 00:28:26;;;;;;;18.98;17.08;;;;;;;10.87;100.00;101693.94;2080171;28;20954;-72
2022/09/12 00:29:28;;;;;;;17.35;15.55;;;;;;;10.83;100.00;101692.19;2079591;28;31176;-72
2022/09/12 00:30:30;;;;;;;18.52;16.58;;;;;;;10.80;100.00;101688.66;2081120;28;20049;-72
2022/09/12 00:31:35;;;;;;;17.40;15.60;;;;;;;10.77;100.00;101684.22;2080353;28;38873;-72
2022/09/12 00:32:37;;;;;;;19.50;17.00;;;;;;;10.78;100.00;101690.47;2080572;28;36292;-72
2022/09/12 00:33:42;;;;;;;20.70;18.13;;;;;;;10.77;100.00;101689.59;2080545;28;29048;-72
2022/09/12 00:34:43;;;;;;;19.33;16.45;;;;;;;10.81;100.00;101691.31;2080126;28;40747;-72
2022/09/12 00:35:51;;;;;;;19.17;17.17;;;;;;;10.79;100.00;101689.56;2080625;28;33875;-72
2022/09/12 00:36:53;;;;;;;22.40;19.08;;;;;;;10.79;100.00;101686.91;2080173;28;32806;-72
2022/09/12 00:37:55;;;;;;;23.90;21.23;;;;;;;10.81;100.00;101682.41;2080530;28;39596;-72
2022/09/12 00:38:57;;;;;;;24.95;21.02;;;;;;;10.85;100.00;101681.44;2080683;28;28486;-72
2022/09/12 00:39:58;;;;;;;22.58;19.17;;;;;;;10.84;100.00;101677.03;2080429;28;36949;-71
2022/09/12 00:41:00;;;;;;;23.60;20.45;;;;;;;10.87;100.00;101679.63;2080618;28;31565;-72
2022/09/12 00:42:02;;;;;;;27.95;22.08;;;;;;;10.95;100.00;101671.53;2080927;28;20042;-71
2022/09/12 00:43:05;;;;;;;21.65;18.50;;;;;;;10.86;100.00;101673.41;2080571;28;32738;-72
2022/09/12 00:44:09;;;;;;;22.58;19.33;;;;;;;10.89;100.00;101665.34;2080555;28;33933;-71
2022/09/12 00:45:25;;;;;;;21.90;18.58;;;;;;;10.87;100.00;101675.19;2079716;28;32450;-72
2022/09/12 00:46:53;;;;;;;18.77;16.63;;;;;;;10.86;100.00;101665.38;2079678;28;38815;-72
2022/09/12 00:48:00;;;;;;;21.25;18.38;;;;;;;10.85;100.00;101660.91;2080748;28;29715;-72
2022/09/12 00:49:30;;;;;;;18.88;16.88;;;;;;;10.87;100.00;101661.78;2080541;28;34501;-71
2022/09/12 00:50:32;;;;;;;22.08;19.23;;;;;;;10.89;100.00;101654.63;2079624;28;37350;-72
2022/09/12 00:51:36;;;;;;;24.00;19.58;;;;;;;10.88;100.00;101654.63;2078931;28;29648;-72
2022/09/12 00:52:47;;;;;;;22.40;19.05;;;;;;;10.86;100.00;101651.97;2080205;28;29588;-72
2022/09/12 00:53:54;;;;;;;18.48;16.58;;;;;;;10.86;100.00;101656.44;2079709;28;39242;-72
2022/09/12 00:55:27;;;;;;;21.55;19.25;;;;;;;10.83;100.00;101654.69;2080018;28;34123;-72
2022/09/12 00:56:29;;;;;;;18.80;16.42;;;;;;;10.81;100.00;101664.53;2079707;28;28937;-71
2022/09/12 00:57:47;;;;;;;20.13;17.27;;;;;;;10.85;100.00;101658.22;2079786;28;30595;-72
2022/09/12 00:59:17;;;;;;;19.50;17.50;;;;;;;10.87;100.00;101659.13;2079825;28;37197;-71
2022/09/12 01:00:23;;;;;;;23.70;19.30;;;;;;;10.83;100.00;101657.34;2080754;28;33520;-72
2022/09/12 01:01:28;;;;;;;21.73;18.52;;;;;;;10.84;100.00;101648.44;2079868;28;31439;-72
2022/09/12 01:02:33;;;;;;;22.58;19.15;;;;;;;10.83;100.00;101651.13;2079669;28;34941;-71
2022/09/12 01:03:35;;;;;;;21.42;17.23;;;;;;;10.83;100.00;101654.69;2079167;28;25430;-72
2022/09/12 01:04:41;;;;;;;23.17;19.70;;;;;;;10.83;100.00;101660.03;2079802;28;36824;-72
2022/09/12 01:06:14;;;;;;;20.08;17.73;;;;;;;10.79;100.00;101655.63;2080068;28;33070;-72
2022/09/12 01:07:16;;;;;;;20.60;17.27;;;;;;;10.80;100.00;101656.50;2084960;28;32365;-72
2022/09/12 01:08:19;;;;;;;21.13;18.85;;;;;;;10.77;100.00;101652.09;2085533;28;33810;-72
2022/09/12 01:09:23;;;;;;;21.70;18.40;;;;;;;10.79;100.00;101652.06;2080297;28;20046;-72
2022/09/12 01:10:25;;;;;;;19.27;17.27;;;;;;;10.77;100.00;101652.09;2079599;28;36229;-72
2022/09/12 01:11:27;;;;;;;17.08;15.35;;;;;;;10.74;100.00;101657.47;2080225;28;35116;-72
2022/09/12 01:12:30;;;;;;;16.77;14.98;;;;;;;10.73;100.00;101662.84;2080118;28;22368;-72
2022/09/12 01:13:34;;;;;;;17.63;15.82;;;;;;;10.67;100.00;101659.34;2079675;28;30008;-72
2022/09/12 01:14:37;;;;;;;19.23;17.23;;;;;;;10.61;100.00;101661.22;2080582;28;24778;-72
2022/09/12 01:15:41;;;;;;;22.05;19.00;;;;;;;10.61;100.00;101654.06;2079372;28;29504;-72
2022/09/12 01:16:45;;;;;;;21.45;18.15;;;;;;;10.63;100.00;101654.94;2079824;28;40773;-71
2022/09/12 01:19:00;;;;;;;20.17;17.65;;;;;;;10.64;100.00;101653.13;2080152;28;32820;-72
2022/09/12 01:20:39;;;;;;;19.02;16.30;;;;;;;10.65;100.00;101661.16;2044312;28;20059;-72
2022/09/12 01:22:04;;;;;;;20.90;18.13;;;;;;;10.68;100.00;101654.88;2080466;28;29488;-72
2022/09/12 01:23:32;;;;;;;20.40;18.25;;;;;;;10.69;100.00;101654.88;2081125;28;20179;-72
2022/09/12 01:24:50;;;;;;;20.98;17.48;;;;;;;10.67;100.00;101648.63;2079470;28;35642;-72
2022/09/12 01:26:34;;;;;;;19.73;16.98;;;;;;;10.67;100.00;101653.09;2080296;28;33801;-72
2022/09/12 01:27:52;;;;;;;17.25;15.43;;;;;;;10.63;100.00;101654.03;2079948;28;42479;-72
2022/09/12 01:29:34;;;;;;;20.17;17.70;;;;;;;10.64;100.00;101650.44;2078806;28;31758;-72
2022/09/12 01:30:44;;;;;;;19.40;17.02;;;;;;;10.59;100.00;101655.88;2079811;28;38433;-71
2022/09/12 01:32:11;;;;;;;20.35;16.92;;;;;;;10.57;100.00;101644.28;2080356;28;33568;-72
2022/09/12 01:33:54;;;;;;;19.20;17.20;;;;;;;10.57;100.00;101644.28;2079554;28;37295;-72
2022/09/12 01:35:34;;;;;;;18.67;16.67;;;;;;;10.53;100.00;101645.22;2080313;28;29908;-72
2022/09/12 01:37:00;;;;;;;17.25;15.43;;;;;;;10.44;100.00;101648.00;2072028;28;40279;-72
2022/09/12 01:38:35;;;;;;;17.63;14.88;;;;;;;10.36;100.00;101650.78;2079909;28;30111;-71
2022/09/12 01:40:06;;;;;;;15.32;13.82;;;;;;;10.28;100.00;101649.91;2080334;28;26515;-71
2022/09/12 01:41:48;;;;;;;20.05;16.27;;;;;;;10.20;100.00;101647.31;2079390;28;36560;-71
2022/09/12 01:43:25;;;;;;;14.00;12.43;;;;;;;10.19;100.00;101648.22;2088240;28;20115;-72
2022/09/12 01:44:43;;;;;;;17.50;15.45;;;;;;;10.21;100.00;101646.44;2080693;28;20045;-72
2022/09/12 01:46:02;;;;;;;19.90;16.80;;;;;;;10.18;100.00;101648.25;2078946;28;34414;-72
2022/09/12 01:47:35;;;;;;;16.95;15.15;;;;;;;10.16;100.00;101642.00;2083301;28;20045;-72
2022/09/12 01:48:46;;;;;;;19.58;15.45;;;;;;;10.13;100.00;101640.25;2082235;28;40398;-72
2022/09/12 01:50:00;;;;;;;21.27;17.90;;;;;;;10.20;100.00;101644.66;2079076;28;37442;-72
2022/09/12 01:51:19;;;;;;;20.80;17.00;;;;;;;10.21;100.00;101642.84;2079596;28;39343;-71
2022/09/12 01:52:36;;;;;;;19.65;15.55;;;;;;;10.15;100.00;101634.91;2080314;28;20045;-72
2022/09/12 01:53:49;;;;;;;18.17;15.20;;;;;;;10.12;100.00;101638.47;2079214;28;42527;-72
2022/09/12 01:55:10;;;;;;;15.13;13.52;;;;;;;10.06;100.00;101642.09;2079462;28;33178;-71
2022/09/12 01:56:28;;;;;;;20.00;17.90;;;;;;;10.03;100.00;101634.13;2083176;28;37043;-72
2022/09/12 01:57:45;;;;;;;18.83;16.50;;;;;;;9.99;100.00;101632.34;2079136;28;37688;-71
2022/09/12 01:59:00;;;;;;;19.15;15.85;;;;;;;9.97;100.00;101634.16;2083692;28;38228;-72
2022/09/12 02:00:09;;;;;;;19.42;16.35;;;;;;;9.98;100.00;101630.59;2084668;28;20042;-72
2022/09/12 02:01:30;;;;;;;18.55;15.98;;;;;;;9.97;100.00;101622.59;2079952;28;20046;-72
2022/09/12 02:02:51;;;;;;;22.73;17.98;;;;;;;10.00;100.00;101622.56;2080317;28;20045;-71
2022/09/12 02:04:17;;;;;;;22.67;18.27;;;;;;;10.07;100.00;101616.25;2067692;28;20876;-71
2022/09/12 02:05:31;;;;;;;18.02;15.60;;;;;;;10.05;100.00;101616.25;2069946;28;20042;-72
2022/09/12 02:07:06;;;;;;;23.23;18.77;;;;;;;10.04;100.00;101610.94;2070859;28;38487;-71
2022/09/12 02:08:40;;;;;;;24.75;18.75;;;;;;;10.07;100.00;101613.59;2070595;28;42423;-71
2022/09/12 02:09:55;;;;;;;23.38;18.77;;;;;;;10.08;100.00;101615.34;2072527;28;20145;-71
2022/09/12 02:11:10;;;;;;;23.08;17.48;;;;;;;10.06;100.00;101609.13;2071515;28;34986;-71
2022/09/12 02:12:19;;;;;;;22.80;18.20;;;;;;;10.03;100.00;101609.13;2071476;28;20038;-71
2022/09/12 02:13:38;;;;;;;23.35;18.80;;;;;;;10.01;100.00;101606.47;2071099;28;35000;-72
2022/09/12 02:14:46;;;;;;;22.52;18.77;;;;;;;9.97;100.00;101604.75;2070867;28;31964;-72
2022/09/12 02:16:02;;;;;;;24.48;19.83;;;;;;;9.97;100.00;101598.50;2071654;28;27205;-71
2022/09/12 02:17:12;;;;;;;25.02;19.38;;;;;;;9.95;100.00;101601.19;2070970;28;42228;-71
2022/09/12 02:18:17;;;;;;;18.83;14.93;;;;;;;9.96;100.00;101607.44;2071708;28;31052;-72
2022/09/12 02:19:27;;;;;;;23.27;18.63;;;;;;;9.92;100.00;101603.91;2071264;28;39606;-72
2022/09/12 02:20:35;;;;;;;22.10;18.90;;;;;;;9.93;100.00;101598.53;2071077;28;32226;-72
2022/09/12 02:21:58;;;;;;;27.60;20.88;;;;;;;10.00;100.00;101601.16;2071468;28;34761;-71
2022/09/12 02:23:04;;;;;;;25.88;19.75;;;;;;;10.02;100.00;101600.22;2070961;28;40493;-72
2022/09/12 02:24:09;;;;;;;23.88;19.95;;;;;;;10.03;100.00;101603.78;2064195;28;35190;-72
2022/09/12 02:25:15;;;;;;;22.20;17.02;;;;;;;10.00;100.00;101603.84;2063984;28;34317;-71
2022/09/12 02:26:34;;;;;;;20.60;17.42;;;;;;;9.96;100.00;101602.06;2064257;28;38491;-71
2022/09/12 02:27:43;;;;;;;18.95;16.27;;;;;;;9.91;100.00;101600.34;2065836;28;35908;-71
2022/09/12 02:28:45;;;;;;;22.85;18.55;;;;;;;9.88;100.00;101600.34;2071088;28;34237;-71
2022/09/12 02:29:48;;;;;;;20.13;17.48;;;;;;;9.86;100.00;101604.84;2071880;28;36573;-72
2022/09/12 02:31:29;;;;;;;19.38;17.05;;;;;;;9.83;100.00;101612.00;2070450;28;31526;-72
2022/09/12 02:33:01;;;;;;;21.23;17.23;;;;;;;9.75;100.00;101609.41;2069083;28;20043;-72
2022/09/12 02:34:39;;;;;;;24.73;19.25;;;;;;;9.74;100.00;101607.63;2071607;28;39747;-71
2022/09/12 02:35:54;;;;;;;24.00;18.70;;;;;;;9.71;100.00;101615.69;2073144;28;32579;-72
2022/09/12 02:37:41;;;;;;;21.75;16.58;;;;;;;9.69;100.00;101612.13;2071597;28;36674;-73
2022/09/12 02:38:47;;;;;;;21.95;17.67;;;;;;;9.69;100.00;101610.34;2075447;28;31799;-72
2022/09/12 02:39:48;;;;;;;18.98;15.45;;;;;;;9.69;100.00;101610.34;2078609;28;41026;-71
2022/09/12 02:40:50;;;;;;;20.70;17.17;;;;;;;9.68;100.00;101607.69;2078414;28;30059;-71
2022/09/12 02:41:57;;;;;;;25.60;20.70;;;;;;;9.67;100.00;101614.84;2071085;28;39004;-72
2022/09/12 02:43:01;;;;;;;26.92;20.90;;;;;;;9.70;100.00;101614.78;2078484;28;40307;-72
2022/09/12 02:44:04;;;;;;;21.67;17.98;;;;;;;9.69;100.00;101615.69;2071473;28;20892;-72
2022/09/12 02:45:07;;;;;;;23.85;20.13;;;;;;;9.71;100.00;101613.03;2070827;28;41056;-71
2022/09/12 02:46:17;;;;;;;27.15;22.27;;;;;;;9.71;100.00;101605.00;2078727;28;36444;-71
2022/09/12 02:47:28;;;;;;;23.10;19.60;;;;;;;9.68;100.00;101607.69;2070622;28;38895;-71
2022/09/12 02:48:36;;;;;;;24.85;20.20;;;;;;;9.68;100.00;101607.69;2072951;28;36604;-71
2022/09/12 02:49:39;;;;;;;26.02;20.20;;;;;;;9.68;100.00;101607.69;2077105;28;32054;-72
2022/09/12 02:50:42;;;;;;;26.50;19.75;;;;;;;9.68;100.00;101599.66;2071314;28;35652;-71
2022/09/12 02:51:45;;;;;;;26.85;20.45;;;;;;;9.71;100.00;101597.84;2071532;28;32510;-71
2022/09/12 02:52:47;;;;;;;29.20;22.65;;;;;;;9.68;100.00;101600.53;2079044;28;31777;-71
2022/09/12 02:53:52;;;;;;;28.48;20.85;;;;;;;9.72;100.00;101599.59;2071411;28;20874;-71
2022/09/12 02:54:56;;;;;;;29.92;22.15;;;;;;;9.74;100.00;101592.50;2071994;28;30733;-72
2022/09/12 02:55:58;;;;;;;27.58;19.52;;;;;;;9.75;100.00;101593.38;2078335;28;33640;-72
2022/09/12 02:57:00;;;;;;;21.38;17.52;;;;;;;9.73;100.00;101592.50;2078767;28;31128;-71
2022/09/12 02:58:07;;;;;;;22.30;18.73;;;;;;;9.69;100.00;101593.41;2070765;28;29943;-71
2022/09/12 02:59:16;;;;;;;31.08;22.85;;;;;;;9.73;100.00;101595.16;2071044;28;40923;-71
2022/09/12 03:00:22;;;;;;;33.47;24.30;;;;;;;9.75;100.00;101590.69;2071497;28;20030;-71
2022/09/12 03:01:49;;;;;;;30.48;21.80;;;;;;;9.82;100.00;101583.50;2073152;28;20088;-71
2022/09/12 03:03:41;;;;;;;29.48;22.10;;;;;;;9.84;100.00;101581.69;2083593;28;20050;-71
2022/09/12 03:04:53;;;;;;;27.77;21.42;;;;;;;9.86;100.00;101580.78;2079153;28;41071;-71
2022/09/12 03:06:01;;;;;;;30.55;22.63;;;;;;;9.84;100.00;101590.59;2079184;28;39498;-71
2022/09/12 03:07:37;;;;;;;24.27;19.17;;;;;;;9.79;100.00;101595.09;2079248;28;31756;-71
2022/09/12 03:09:21;;;;;;;25.98;20.63;;;;;;;9.76;100.00;101595.13;2085405;28;21029;-71
2022/09/12 03:10:53;;;;;;;22.70;17.35;;;;;;;9.69;100.00;101593.41;2071280;28;42366;-71
2022/09/12 03:12:22;;;;;;;20.95;17.42;;;;;;;9.60;100.00;101593.47;2071409;28;39178;-72
2022/09/12 03:14:10;;;;;;;20.67;17.35;;;;;;;9.52;100.00;101591.75;2071325;28;38141;-71
2022/09/12 03:15:26;;;;;;;25.98;20.05;;;;;;;9.48;100.00;101584.69;2071478;28;32384;-71
2022/09/12 03:17:02;;;;;;;29.08;21.25;;;;;;;9.50;100.00;101588.22;2087347;28;33013;-71
2022/09/12 03:18:28;;;;;;;29.98;21.05;;;;;;;9.57;100.00;101591.75;2074960;28;41671;-71
2022/09/12 03:19:40;;;;;;;28.17;21.75;;;;;;;9.64;100.00;101592.59;2071022;28;38058;-71
2022/09/12 03:20:55;;;;;;;30.13;22.02;;;;;;;9.64;100.00;101590.78;2071124;28;43038;-71
2022/09/12 03:22:15;;;;;;;26.08;21.13;;;;;;;9.65;100.00;101591.66;2087991;28;21020;-71
2022/09/12 03:23:30;;;;;;;28.85;20.90;;;;;;;9.64;100.00;101588.13;2075058;28;34022;-72
2022/09/12 03:24:48;;;;;;;27.08;21.00;;;;;;;9.66;100.00;101588.09;2071101;28;38223;-71
2022/09/12 03:26:21;;;;;;;27.00;19.50;;;;;;;9.63;100.00;101586.31;2070950;28;39783;-71
2022/09/12 03:27:52;;;;;;;25.85;20.17;;;;;;;9.61;100.00;101585.47;2087757;28;20052;-71
2022/09/12 03:28:55;;;;;;;26.00;19.55;;;;;;;9.59;100.00;101584.59;2070347;28;38548;-71
2022/09/12 03:29:58;;;;;;;23.67;19.35;;;;;;;9.55;100.00;101580.19;2087646;28;20085;-71
2022/09/12 03:31:11;;;;;;;25.92;19.40;;;;;;;9.52;100.00;101586.41;2085625;28;41242;-71
2022/09/12 03:32:15;;;;;;;25.98;19.20;;;;;;;9.51;100.00;101584.66;2086697;28;31968;-71
2022/09/12 03:33:23;;;;;;;26.42;20.02;;;;;;;9.49;100.00;101588.22;2082953;28;39681;-71
2022/09/12 03:34:26;;;;;;;36.70;25.52;;;;;;;9.51;100.00;101590.00;2076545;28;34372;-72
2022/09/12 03:35:29;;;;;;;26.70;20.70;;;;;;;9.50;100.00;101598.03;2079906;28;20795;-71
2022/09/12 03:36:31;;;;;;;26.00;19.17;;;;;;;9.51;100.00;101586.41;2078720;28;36666;-71
2022/09/12 03:37:33;;;;;;;25.98;19.70;;;;;;;9.50;100.00;101590.00;2078953;28;36442;-71
2022/09/12 03:38:34;;;;;;;26.20;20.95;;;;;;;9.49;100.00;101590.91;2071687;28;20053;-71
2022/09/12 03:39:39;;;;;;;26.15;19.38;;;;;;;9.47;100.00;101585.56;2070933;28;20797;-71
2022/09/12 03:40:41;;;;;;;28.38;22.40;;;;;;;9.52;100.00;101588.22;2065643;28;30412;-71
2022/09/12 03:41:43;;;;;;;28.55;22.58;;;;;;;9.52;100.00;101583.75;2073605;28;28248;-71
2022/09/12 03:42:45;;;;;;;28.80;21.85;;;;;;;9.53;100.00;101582.84;2070796;28;34934;-70
2022/09/12 03:43:47;;;;;;;29.73;22.13;;;;;;;9.55;100.00;101586.41;2070132;28;30326;-71
2022/09/12 03:44:49;;;;;;;26.17;20.15;;;;;;;9.55;100.00;101586.41;2062136;28;34498;-70
2022/09/12 03:45:53;;;;;;;20.50;17.60;;;;;;;9.53;100.00;101581.97;2070832;28;22989;-71
2022/09/12 03:46:55;;;;;;;24.98;20.13;;;;;;;9.48;100.00;101583.81;2071379;28;20039;-71
2022/09/12 03:47:57;;;;;;;28.98;21.13;;;;;;;9.46;100.00;101581.13;2071693;28;32828;-71
2022/09/12 03:49:01;;;;;;;29.88;22.67;;;;;;;9.46;100.00;101578.47;2071866;28;20788;-71
2022/09/12 03:50:05;;;;;;;28.20;21.33;;;;;;;9.44;100.00;101585.63;2071090;28;32683;-71
2022/09/12 03:51:10;;;;;;;27.92;19.17;;;;;;;9.44;100.00;101587.38;2070816;28;38413;-71
2022/09/12 03:52:12;;;;;;;27.75;21.05;;;;;;;9.41;100.00;101582.94;2071092;28;37198;-71
2022/09/12 03:53:13;;;;;;;25.20;19.52;;;;;;;9.38;100.00;101579.41;2072188;28;36076;-71
2022/09/12 03:54:17;;;;;;;28.15;21.02;;;;;;;9.39;100.00;101590.09;2071763;28;37169;-71
2022/09/12 03:55:22;;;;;;;25.95;20.73;;;;;;;9.38;100.00;101572.28;2072324;28;23141;-71
2022/09/12 03:56:24;;;;;;;30.95;22.60;;;;;;;9.42;100.00;101575.81;2072760;28;31596;-71
2022/09/12 03:57:25;;;;;;;33.38;24.85;;;;;;;9.48;100.00;101576.66;2071474;28;34464;-71
2022/09/12 03:58:30;;;;;;;31.40;23.58;;;;;;;9.50;100.00;101580.19;2071597;28;35741;-71
2022/09/12 03:59:32;;;;;;;26.13;21.40;;;;;;;9.47;100.00;101580.22;2077073;28;33226;-71
2022/09/12 04:00:33;;;;;;;25.80;20.33;;;;;;;9.46;100.00;101575.78;2080273;28;36722;-71
2022/09/12 04:01:36;;;;;;;32.90;24.23;;;;;;;9.51;100.00;101579.31;2081472;28;20034;-71
2022/09/12 04:02:38;;;;;;;39.67;27.48;;;;;;;9.62;100.00;101575.63;2080628;28;33368;-71
2022/09/12 04:03:41;;;;;;;34.40;23.38;;;;;;;9.60;100.00;101574.78;2080161;28;32563;-71
2022/09/12 04:04:45;;;;;;;31.00;23.42;;;;;;;9.59;100.00;101578.38;2080544;28;20898;-71
2022/09/12 04:05:47;;;;;;;28.60;21.95;;;;;;;9.59;100.00;101578.38;2080060;28;36521;-71
2022/09/12 04:06:49;;;;;;;39.05;27.15;;;;;;;9.62;100.00;101578.31;2079504;28;31410;-71
2022/09/12 04:07:51;;;;;;;30.65;23.30;;;;;;;9.63;100.00;101577.44;2082208;28;35834;-72
2022/09/12 04:08:54;;;;;;;31.90;23.75;;;;;;;9.63;100.00;101577.44;2080799;28;34414;-72
2022/09/12 04:09:55;;;;;;;24.02;20.20;;;;;;;9.59;100.00;101578.38;2072294;28;32498;-71
2022/09/12 04:11:07;;;;;;;26.45;21.17;;;;;;;9.52;100.00;101578.41;2072199;28;29402;-71
2022/09/12 04:12:09;;;;;;;30.67;21.45;;;;;;;9.49;100.00;101575.78;2080950;28;37544;-72
2022/09/12 04:13:10;;;;;;;26.45;20.48;;;;;;;9.49;100.00;101577.53;2079512;28;30219;-72
2022/09/12 04:14:12;;;;;;;26.90;20.63;;;;;;;9.51;100.00;101573.97;2080115;28;33295;-72
2022/09/12 04:15:14;;;;;;;27.38;22.30;;;;;;;9.54;100.00;101578.38;2087914;28;33102;-71
2022/09/12 04:16:16;;;;;;;28.17;22.45;;;;;;;9.53;100.00;101572.16;2079675;28;28883;-71
2022/09/12 04:17:18;;;;;;;30.98;22.88;;;;;;;9.51;100.00;101576.63;2071995;28;35230;-71
2022/09/12 04:18:19;;;;;;;25.63;20.00;;;;;;;9.51;100.00;101575.72;2080031;28;37017;-71
2022/09/12 04:19:25;;;;;;;27.60;22.27;;;;;;;9.53;100.00;101571.28;2080977;28;20884;-72
2022/09/12 04:20:29;;;;;;;24.80;19.30;;;;;;;9.53;100.00;101573.97;2081458;28;20034;-72
2022/09/12 04:21:31;;;;;;;29.55;22.67;;;;;;;9.51;100.00;101579.31;2080097;28;33503;-72
2022/09/12 04:22:33;;;;;;;29.48;21.92;;;;;;;9.51;100.00;101563.28;2079611;28;40593;-72
2022/09/12 04:23:35;;;;;;;28.50;21.05;;;;;;;9.51;100.00;101571.28;2080554;28;20050;-72
2022/09/12 04:24:36;;;;;;;31.63;24.52;;;;;;;9.52;100.00;101578.41;2079269;28;41096;-71
2022/09/12 04:25:38;;;;;;;28.35;21.73;;;;;;;9.50;100.00;101576.66;2080136;28;30384;-72
2022/09/12 04:26:40;;;;;;;31.08;23.13;;;;;;;9.49;100.00;101581.13;2073254;28;20047;-72
2022/09/12 04:27:42;;;;;;;29.67;22.20;;;;;;;9.50;100.00;101571.31;2071722;28;37894;-72
2022/09/12 04:28:45;;;;;;;28.30;21.80;;;;;;;9.53;100.00;101568.63;2072291;28;28999;-71
2022/09/12 04:29:46;;;;;;;29.10;23.20;;;;;;;9.60;100.00;101572.09;2072198;28;30719;-72
2022/09/12 04:30:49;;;;;;;30.73;23.60;;;;;;;9.61;100.00;101568.53;2072667;28;31679;-72
2022/09/12 04:31:50;;;;;;;33.03;25.25;;;;;;;9.61;100.00;101571.22;2072393;28;30558;-71
2022/09/12 04:32:53;;;;;;;33.95;25.77;;;;;;;9.64;100.00;101565.84;2072317;28;35727;-71
2022/09/12 04:34:00;;;;;;;30.92;23.77;;;;;;;9.69;100.00;101561.31;2072124;28;34995;-71
2022/09/12 04:35:02;;;;;;;29.50;23.52;;;;;;;9.69;100.00;101559.56;2071883;28;30535;-70
2022/09/12 04:36:16;;;;;;;27.58;22.10;;;;;;;9.70;100.00;101561.31;2063907;28;34210;-72
2022/09/12 04:37:18;;;;;;;30.58;23.13;;;;;;;9.71;100.00;101562.22;2072382;28;21939;-71
2022/09/12 04:38:19;;;;;;;31.92;24.20;;;;;;;9.74;100.00;101560.41;2071797;28;39417;-72
2022/09/12 04:39:21;;;;;;;29.33;23.42;;;;;;;9.73;100.00;101557.72;2072299;28;25693;-71
2022/09/12 04:40:23;;;;;;;29.45;23.30;;;;;;;9.71;100.00;101560.41;2072500;28;27985;-72
2022/09/12 04:41:35;;;;;;;28.17;22.30;;;;;;;9.70;100.00;101565.78;2072429;28;34221;-72
2022/09/12 04:42:36;;;;;;;26.35;20.45;;;;;;;9.70;100.00;101563.97;2072321;28;20050;-71
2022/09/12 04:43:39;;;;;;;25.48;20.40;;;;;;;9.67;100.00;101560.44;2071513;28;41298;-71
2022/09/12 04:44:43;;;;;;;30.58;24.80;;;;;;;9.69;100.00;101559.56;2071917;28;20038;-71
2022/09/12 04:45:44;;;;;;;25.73;22.17;;;;;;;9.68;100.00;101571.13;2071884;28;26319;-71
2022/09/12 04:46:47;;;;;;;29.25;22.42;;;;;;;9.71;100.00;101563.09;2071750;28;36955;-71
2022/09/12 04:47:48;;;;;;;33.55;24.77;;;;;;;9.70;100.00;101566.66;2072952;28;20062;-72
2022/09/12 04:48:51;;;;;;;27.17;21.77;;;;;;;9.71;100.00;101563.09;2062963;28;39587;-71
2022/09/12 04:49:57;;;;;;;27.25;21.98;;;;;;;9.71;100.00;101570.25;2064682;28;32420;-71
2022/09/12 04:51:19;;;;;;;30.58;24.00;;;;;;;9.74;100.00;101564.84;2072117;28;36219;-71
2022/09/12 04:52:21;;;;;;;27.75;23.00;;;;;;;9.73;100.00;101568.44;2071960;28;26255;-72
2022/09/12 04:53:23;;;;;;;29.65;22.30;;;;;;;9.71;100.00;101571.13;2072523;28;20859;-71
2022/09/12 04:54:25;;;;;;;25.55;20.25;;;;;;;9.73;100.00;101565.75;2072289;28;36047;-71
2022/09/12 04:55:28;;;;;;;26.90;22.77;;;;;;;9.76;100.00;101563.03;2073945;28;35851;-71
2022/09/12 04:56:35;;;;;;;30.45;24.23;;;;;;;9.77;100.00;101559.47;2072771;28;30419;-72
2022/09/12 04:57:39;;;;;;;27.65;22.70;;;;;;;9.81;100.00;101566.56;2072867;28;20996;-71
2022/09/12 04:58:41;;;;;;;28.35;22.55;;;;;;;9.82;100.00;101556.75;2071306;28;36227;-71
2022/09/12 04:59:43;;;;;;;28.50;23.00;;;;;;;9.84;100.00;101560.31;2072010;28;30710;-71
2022/09/12 05:00:44;;;;;;;24.98;21.20;;;;;;;9.86;100.00;101562.03;2072173;28;32328;-72
2022/09/12 05:01:47;;;;;;;24.02;20.67;;;;;;;9.86;100.00;101559.38;2072488;28;23585;-71
2022/09/12 05:02:48;;;;;;;26.70;22.25;;;;;;;9.88;100.00;101564.72;2071925;28;34150;-72
2022/09/12 05:03:51;;;;;;;24.88;21.17;;;;;;;9.87;100.00;101561.16;2078072;28;32940;-71
2022/09/12 05:04:53;;;;;;;26.88;21.58;;;;;;;9.88;100.00;101562.03;2079613;28;36396;-72
2022/09/12 05:05:54;;;;;;;24.90;21.02;;;;;;;9.90;100.00;101560.22;2079612;28;34461;-72
2022/09/12 05:06:59;;;;;;;25.33;20.88;;;;;;;9.92;100.00;101555.75;2081056;28;20046;-71
2022/09/12 05:08:01;;;;;;;25.83;21.13;;;;;;;9.97;100.00;101550.34;2080248;28;31804;-71
2022/09/12 05:09:05;;;;;;;29.45;22.58;;;;;;;9.97;100.00;101555.72;2080227;28;36523;-71
2022/09/12 05:10:11;;;;;;;23.48;19.83;;;;;;;9.99;100.00;101556.56;2080285;28;30207;-71
2022/09/12 05:11:19;;;;;;;25.10;21.08;;;;;;;10.01;100.00;101562.78;2079651;28;39747;-71
2022/09/12 05:12:26;;;;;;;24.30;20.83;;;;;;;10.06;100.00;101560.97;2080705;28;20132;-71
2022/09/12 05:13:28;;;;;;;23.65;20.17;;;;;;;10.05;100.00;101561.84;2080182;28;20034;-71
2022/09/12 05:14:31;;;;;;;24.85;21.38;;;;;;;10.07;100.00;101560.06;2079249;28;38163;-71
2022/09/12 05:15:41;;;;;;;26.45;20.10;;;;;;;10.07;100.00;101552.03;2080151;28;38183;-71
2022/09/12 05:16:45;;;;;;;22.65;19.20;;;;;;;10.10;100.00;101552.91;2080651;28;29540;-72